createdAt,value
2023-04-26T00:00:29.200Z,63.83
2023-04-26T00:01:31.768Z,64.07
2023-04-26T00:02:35.509Z,63.77
2023-04-26T00:03:40.031Z,63.89
2023-04-26T00:04:42.850Z,63.99
2023-04-26T00:05:45.367Z,64.16
2023-04-26T00:06:49.852Z,64.21
2023-04-26T00:07:53.158Z,64.19
2023-04-26T00:08:55.819Z,64.40
2023-04-26T00:10:00.197Z,64.40
2023-04-26T00:11:02.975Z,64.54
2023-04-26T00:12:07.643Z,64.44
2023-04-26T00:13:10.753Z,64.58
2023-04-26T00:14:13.227Z,64.51
2023-04-26T00:15:15.690Z,64.39
2023-04-26T00:16:19.606Z,64.54
2023-04-26T00:17:24.807Z,64.77
2023-04-26T00:18:27.267Z,64.53
2023-04-26T00:19:29.513Z,65.14
2023-04-26T00:20:32.405Z,65.40
2023-04-26T00:21:34.968Z,65.53
2023-04-26T00:22:37.300Z,65.65
2023-04-26T00:23:41.365Z,65.61
2023-04-26T00:24:43.827Z,65.64
2023-04-26T00:25:46.061Z,65.82
2023-04-26T00:26:48.348Z,65.57
2023-04-26T00:27:51.927Z,65.59
2023-04-26T00:28:54.418Z,65.86
2023-04-26T00:29:57.389Z,65.85
2023-04-26T00:31:00.044Z,65.45
2023-04-26T00:32:03.660Z,65.45
2023-04-26T00:33:06.114Z,65.81
2023-04-26T00:34:08.493Z,65.81
2023-04-26T00:35:11.341Z,65.85
2023-04-26T00:36:16.694Z,65.97
2023-04-26T00:37:19.076Z,65.97
2023-04-26T00:38:21.916Z,65.83
2023-04-26T00:39:24.654Z,65.73
2023-04-26T00:40:27.470Z,66.10
2023-04-26T00:41:29.995Z,66.46
2023-04-26T00:42:32.807Z,66.69
2023-04-26T00:43:35.651Z,66.21
2023-04-26T00:44:40.379Z,66.44
2023-04-26T00:45:43.366Z,66.80
2023-04-26T00:46:47.375Z,66.88
2023-04-26T00:47:51.097Z,67.01
2023-04-26T00:48:54.712Z,67.02
2023-04-26T00:49:57.776Z,67.11
2023-04-26T00:51:00.862Z,67.30
2023-04-26T00:52:04.004Z,67.20
2023-04-26T00:53:07.852Z,67.44
2023-04-26T00:54:10.517Z,67.01
2023-04-26T00:55:15.780Z,67.18
2023-04-26T00:56:20.754Z,67.51
2023-04-26T00:57:23.333Z,67.32
2023-04-26T00:58:26.209Z,67.35
2023-04-26T00:59:28.740Z,67.13
2023-04-26T01:00:30.934Z,67.64
2023-04-26T01:01:34.443Z,67.85
2023-04-26T01:02:37.958Z,68.34
2023-04-26T01:03:43.741Z,68.00
2023-04-26T01:04:47.663Z,68.10
2023-04-26T01:05:50.434Z,67.44
2023-04-26T01:06:54.337Z,67.44
2023-04-26T01:07:57.267Z,67.91
2023-04-26T01:09:05.532Z,67.97
2023-04-26T01:10:09.457Z,67.88
2023-04-26T01:11:12.467Z,67.66
2023-04-26T01:12:15.066Z,67.57
2023-04-26T01:13:18.663Z,68.26
2023-04-26T01:14:23.223Z,67.77
2023-04-26T01:15:27.682Z,67.95
2023-04-26T01:16:31.038Z,67.77
2023-04-26T01:17:34.606Z,67.70
2023-04-26T01:18:37.059Z,67.25
2023-04-26T01:19:47.894Z,67.02
2023-04-26T01:20:51.955Z,67.37
2023-04-26T01:21:54.727Z,67.69
2023-04-26T01:22:57.283Z,68.12
2023-04-26T01:23:59.741Z,68.12
2023-04-26T01:25:06.135Z,67.96
2023-04-26T01:26:09.017Z,67.52
2023-04-26T01:27:12.423Z,67.60
2023-04-26T01:28:16.289Z,67.74
2023-04-26T01:29:20.396Z,67.90
2023-04-26T01:30:22.702Z,67.99
2023-04-26T01:31:25.562Z,68.19
2023-04-26T01:32:27.842Z,68.33
2023-04-26T01:33:32.259Z,68.58
2023-04-26T01:34:34.477Z,68.92
2023-04-26T01:35:36.695Z,68.70
2023-04-26T01:36:39.570Z,68.32
2023-04-26T01:37:42.823Z,68.74
2023-04-26T01:38:45.512Z,68.74
2023-04-26T01:39:47.731Z,68.66
2023-04-26T01:40:50.472Z,68.83
2023-04-26T01:41:52.926Z,68.71
2023-04-26T01:42:55.542Z,69.22
2023-04-26T01:43:58.252Z,69.58
2023-04-26T01:45:00.756Z,69.14
2023-04-26T01:46:05.442Z,69.15
2023-04-26T01:47:08.317Z,68.58
2023-04-26T01:48:10.530Z,68.22
2023-04-26T01:49:12.773Z,68.72
2023-04-26T01:50:15.703Z,68.67
2023-04-26T01:51:17.929Z,68.92
2023-04-26T01:52:21.026Z,69.34
2023-04-26T01:53:23.318Z,69.54
2023-04-26T01:54:25.600Z,69.25
2023-04-26T01:55:28.544Z,69.71
2023-04-26T01:56:30.964Z,69.40
2023-04-26T01:57:34.287Z,70.10
2023-04-26T01:58:36.505Z,70.08
2023-04-26T01:59:39.148Z,69.95
2023-04-26T02:00:41.602Z,69.88
2023-04-26T02:01:44.041Z,70.28
2023-04-26T02:02:46.399Z,70.37
2023-04-26T02:03:48.880Z,69.88
2023-04-26T02:04:50.889Z,69.89
2023-04-26T02:05:53.784Z,69.70
2023-04-26T02:06:56.801Z,69.45
2023-04-26T02:08:00.191Z,69.02
2023-04-26T02:09:02.968Z,69.25
2023-04-26T02:10:06.685Z,69.82
2023-04-26T02:11:10.010Z,69.95
2023-04-26T02:12:12.594Z,69.43
2023-04-26T02:13:15.266Z,69.54
2023-04-26T02:14:18.469Z,68.91
2023-04-26T02:15:21.361Z,69.13
2023-04-26T02:16:25.068Z,69.53
2023-04-26T02:17:28.690Z,69.55
2023-04-26T02:18:31.084Z,69.95
2023-04-26T02:19:33.830Z,69.97
2023-04-26T02:20:37.425Z,69.91
2023-04-26T02:21:57.747Z,69.71
2023-04-26T02:23:00.150Z,69.56
2023-04-26T02:24:02.367Z,69.32
2023-04-26T02:25:07.600Z,69.33
2023-04-26T02:26:11.569Z,69.34
2023-04-26T02:27:13.772Z,69.19
2023-04-26T02:28:16.535Z,69.00
2023-04-26T02:29:21.237Z,69.10
2023-04-26T02:30:23.913Z,69.34
2023-04-26T02:31:27.552Z,69.18
2023-04-26T02:32:30.954Z,69.58
2023-04-26T02:33:33.442Z,70.36
2023-04-26T02:34:37.349Z,72.64
2023-04-26T02:35:40.111Z,73.62
2023-04-26T02:36:42.540Z,75.44
2023-04-26T02:37:46.516Z,75.44
2023-04-26T02:38:48.898Z,76.53
2023-04-26T02:39:51.638Z,76.68
2023-04-26T02:41:03.814Z,77.42
2023-04-26T02:42:10.502Z,76.84
2023-04-26T02:43:12.934Z,77.05
2023-04-26T02:44:15.193Z,76.99
2023-04-26T02:45:17.621Z,76.80
2023-04-26T02:46:22.866Z,76.65
2023-04-26T02:47:24.977Z,76.30
2023-04-26T02:48:27.561Z,77.29
2023-04-26T02:49:30.758Z,77.87
2023-04-26T02:50:33.144Z,77.53
2023-04-26T02:51:35.789Z,76.56
2023-04-26T02:52:38.449Z,76.06
2023-04-26T02:53:40.674Z,77.09
2023-04-26T02:54:42.925Z,77.17
2023-04-26T02:55:45.649Z,77.18
2023-04-26T02:56:49.058Z,77.22
2023-04-26T02:57:51.330Z,77.24
2023-04-26T02:58:53.618Z,76.96
2023-04-26T02:59:57.130Z,75.57
2023-04-26T03:01:01.570Z,75.46
2023-04-26T03:02:04.505Z,75.48
2023-04-26T03:03:07.121Z,75.30
2023-04-26T03:04:09.876Z,75.41
2023-04-26T03:05:13.118Z,75.42
2023-04-26T03:06:15.938Z,75.48
2023-04-26T03:07:18.047Z,74.65
2023-04-26T03:08:22.346Z,75.03
2023-04-26T03:09:25.228Z,75.09
2023-04-26T03:10:28.212Z,75.50
2023-04-26T03:11:30.493Z,75.50
2023-04-26T03:12:32.833Z,75.80
2023-04-26T03:13:35.844Z,76.24
2023-04-26T03:14:38.214Z,77.09
2023-04-26T03:15:45.992Z,77.50
2023-04-26T03:16:48.701Z,77.55
2023-04-26T03:17:51.738Z,77.52
2023-04-26T03:18:54.455Z,77.57
2023-04-26T03:19:57.175Z,77.81
2023-04-26T03:21:00.786Z,77.29
2023-04-26T03:22:03.458Z,76.56
2023-04-26T03:23:06.056Z,76.04
2023-04-26T03:24:08.400Z,76.26
2023-04-26T03:25:10.759Z,76.64
2023-04-26T03:26:13.874Z,75.98
2023-04-26T03:27:16.527Z,75.41
2023-04-26T03:28:19.532Z,75.17
2023-04-26T03:29:22.183Z,75.34
2023-04-26T03:30:25.472Z,73.42
2023-04-26T03:31:27.830Z,72.74
2023-04-26T03:32:32.526Z,72.76
2023-04-26T03:33:34.882Z,72.92
2023-04-26T03:34:37.199Z,72.52
2023-04-26T03:35:39.844Z,72.65
2023-04-26T03:36:42.309Z,72.97
2023-04-26T03:37:44.819Z,72.99
2023-04-26T03:38:48.353Z,72.79
2023-04-26T03:39:53.265Z,73.12
2023-04-26T03:40:56.636Z,73.30
2023-04-26T03:42:00.013Z,73.65
2023-04-26T03:43:02.577Z,74.02
2023-04-26T03:44:05.053Z,74.05
2023-04-26T03:45:09.349Z,73.02
2023-04-26T03:46:11.894Z,73.34
2023-04-26T03:47:15.358Z,73.91
2023-04-26T03:48:17.946Z,74.13
2023-04-26T03:49:20.730Z,74.73
2023-04-26T03:50:23.246Z,74.80
2023-04-26T03:51:26.943Z,74.87
2023-04-26T03:52:29.291Z,75.06
2023-04-26T03:53:32.022Z,75.17
2023-04-26T03:54:36.661Z,75.18
2023-04-26T03:55:39.127Z,75.17
2023-04-26T03:56:41.484Z,75.03
2023-04-26T03:57:44.757Z,75.00
2023-04-26T03:58:47.170Z,74.94
2023-04-26T03:59:49.415Z,74.23
2023-04-26T04:00:52.358Z,74.03
2023-04-26T04:01:55.011Z,74.24
2023-04-26T04:02:57.998Z,74.27
2023-04-26T04:04:02.568Z,74.32
2023-04-26T04:05:05.817Z,74.53
2023-04-26T04:06:08.612Z,74.76
2023-04-26T04:07:10.761Z,74.43
2023-04-26T04:08:13.021Z,74.84
2023-04-26T04:09:16.097Z,74.76
2023-04-26T04:10:18.910Z,74.74
2023-04-26T04:11:22.930Z,74.87
2023-04-26T04:12:26.760Z,75.02
2023-04-26T04:13:29.144Z,75.81
2023-04-26T04:14:31.860Z,76.10
2023-04-26T04:15:34.241Z,76.02
2023-04-26T04:16:37.192Z,75.85
2023-04-26T04:17:39.877Z,76.20
2023-04-26T04:18:42.662Z,75.99
2023-04-26T04:19:45.974Z,75.97
2023-04-26T04:20:48.275Z,76.56
2023-04-26T04:21:52.254Z,76.62
2023-04-26T04:22:55.614Z,76.56
2023-04-26T04:23:57.937Z,75.97
2023-04-26T04:25:00.929Z,75.67
2023-04-26T04:26:03.968Z,75.61
2023-04-26T04:27:06.340Z,75.35
2023-04-26T04:28:09.313Z,74.81
2023-04-26T04:29:12.317Z,75.14
2023-04-26T04:30:15.953Z,75.44
2023-04-26T04:31:18.837Z,75.22
2023-04-26T04:32:23.156Z,74.43
2023-04-26T04:33:27.647Z,74.14
2023-04-26T04:34:36.402Z,73.88
2023-04-26T04:35:42.037Z,74.36
2023-04-26T04:36:46.690Z,74.11
2023-04-26T04:37:50.002Z,73.94
2023-04-26T04:38:54.157Z,73.37
2023-04-26T04:39:57.097Z,73.20
2023-04-26T04:41:00.707Z,73.17
2023-04-26T04:42:03.467Z,73.06
2023-04-26T04:43:06.149Z,73.08
2023-04-26T04:44:08.722Z,72.86
2023-04-26T04:45:14.165Z,72.26
2023-04-26T04:46:17.663Z,72.01
2023-04-26T04:47:20.284Z,71.96
2023-04-26T04:48:22.832Z,72.18
2023-04-26T04:49:25.396Z,72.28
2023-04-26T04:50:29.462Z,72.44
2023-04-26T04:51:32.178Z,72.51
2023-04-26T04:52:35.812Z,72.38
2023-04-26T04:53:38.753Z,72.38
2023-04-26T04:54:41.432Z,73.23
2023-04-26T04:55:44.392Z,73.59
2023-04-26T04:56:48.547Z,73.84
2023-04-26T04:57:52.078Z,73.95
2023-04-26T04:58:55.669Z,73.63
2023-04-26T04:59:58.471Z,74.86
2023-04-26T05:01:02.400Z,74.63
2023-04-26T05:02:06.575Z,74.30
2023-04-26T05:03:09.346Z,74.08
2023-04-26T05:04:11.976Z,73.84
2023-04-26T05:05:14.807Z,73.45
2023-04-26T05:06:17.928Z,73.14
2023-04-26T05:07:20.476Z,72.59
2023-04-26T05:08:24.788Z,72.44
2023-04-26T05:09:27.498Z,72.70
2023-04-26T05:10:31.069Z,72.62
2023-04-26T05:11:34.729Z,72.51
2023-04-26T05:12:38.918Z,72.29
2023-04-26T05:13:42.283Z,72.49
2023-04-26T05:14:45.500Z,72.76
2023-04-26T05:15:47.801Z,72.55
2023-04-26T05:16:50.472Z,72.68
2023-04-26T05:17:54.774Z,72.53
2023-04-26T05:18:59.042Z,72.35
2023-04-26T05:20:04.462Z,72.06
2023-04-26T05:21:06.942Z,71.74
2023-04-26T05:22:09.821Z,72.14
2023-04-26T05:23:12.135Z,72.13
2023-04-26T05:24:15.158Z,72.14
2023-04-26T05:25:18.229Z,72.03
2023-04-26T05:26:24.057Z,71.66
2023-04-26T05:27:37.187Z,71.88
2023-04-26T05:28:42.138Z,72.00
2023-04-26T05:29:56.563Z,72.13
2023-04-26T05:31:01.938Z,71.89
2023-04-26T05:32:21.305Z,71.28
2023-04-26T05:33:28.585Z,71.51
2023-04-26T05:34:32.901Z,71.38
2023-04-26T05:35:36.491Z,71.33
2023-04-26T05:36:39.056Z,71.56
2023-04-26T05:37:41.294Z,71.87
2023-04-26T05:38:44.490Z,72.24
2023-04-26T05:39:47.189Z,72.46
2023-04-26T05:40:50.085Z,72.20
2023-04-26T05:41:53.229Z,72.30
2023-04-26T05:42:55.774Z,72.14
2023-04-26T05:44:00.604Z,71.93
2023-04-26T05:45:03.430Z,71.89
2023-04-26T05:46:06.229Z,71.71
2023-04-26T05:47:09.716Z,71.44
2023-04-26T05:48:13.099Z,71.37
2023-04-26T05:49:15.683Z,70.65
2023-04-26T05:50:18.429Z,70.65
2023-04-26T05:51:21.733Z,70.57
2023-04-26T05:52:24.009Z,70.02
2023-04-26T05:53:27.629Z,70.86
2023-04-26T05:54:30.542Z,70.86
2023-04-26T05:55:33.043Z,71.53
2023-04-26T05:56:35.984Z,71.41
2023-04-26T05:57:38.711Z,70.87
2023-04-26T05:58:43.274Z,71.03
2023-04-26T05:59:47.838Z,71.17
2023-04-26T06:00:50.863Z,71.37
2023-04-26T06:01:54.329Z,70.87
2023-04-26T06:02:57.137Z,70.64
2023-04-26T06:04:01.384Z,70.39
2023-04-26T06:05:07.547Z,70.13
2023-04-26T06:06:12.230Z,70.05
2023-04-26T06:07:16.760Z,69.68
2023-04-26T06:08:21.219Z,69.67
2023-04-26T06:09:25.755Z,68.99
2023-04-26T06:10:28.629Z,68.89
2023-04-26T06:11:31.796Z,69.16
2023-04-26T06:12:34.329Z,68.95
2023-04-26T06:13:36.820Z,68.91
2023-04-26T06:14:39.755Z,68.97
2023-04-26T06:15:43.827Z,68.83
2023-04-26T06:16:47.777Z,69.82
2023-04-26T06:17:52.441Z,70.02
2023-04-26T06:18:56.121Z,71.01
2023-04-26T06:19:59.548Z,70.59
2023-04-26T06:21:01.826Z,70.69
2023-04-26T06:22:04.283Z,69.27
2023-04-26T06:23:06.610Z,69.07
2023-04-26T06:24:09.671Z,68.65
2023-04-26T06:25:12.680Z,68.78
2023-04-26T06:26:15.485Z,67.52
2023-04-26T06:27:17.982Z,68.68
2023-04-26T06:28:22.226Z,67.35
2023-04-26T06:29:24.909Z,68.65
2023-04-26T06:30:27.390Z,67.00
2023-04-26T06:31:30.126Z,67.15
2023-04-26T06:32:33.639Z,67.49
2023-04-26T06:33:35.740Z,66.53
2023-04-26T06:34:38.265Z,66.15
2023-04-26T06:35:41.549Z,66.41
2023-04-26T06:36:45.497Z,66.36
2023-04-26T06:37:48.489Z,66.91
2023-04-26T06:38:51.029Z,66.43
2023-04-26T06:39:53.991Z,66.28
2023-04-26T06:40:57.070Z,65.98
2023-04-26T06:41:59.418Z,65.98
2023-04-26T06:43:04.202Z,66.00
2023-04-26T06:44:14.228Z,66.49
2023-04-26T06:45:18.457Z,67.23
2023-04-26T06:46:22.044Z,68.81
2023-04-26T06:47:29.434Z,69.45
2023-04-26T06:48:32.670Z,68.67
2023-04-26T06:49:35.478Z,67.28
2023-04-26T06:50:39.439Z,68.37
2023-04-26T06:51:42.770Z,68.56
2023-04-26T06:52:45.552Z,68.07
2023-04-26T06:53:48.760Z,67.91
2023-04-26T06:54:57.105Z,67.83
2023-04-26T06:55:57.247Z,67.54
2023-04-26T06:57:01.510Z,68.73
2023-04-26T06:58:04.141Z,68.84
2023-04-26T06:59:07.760Z,68.68
2023-04-26T07:00:12.205Z,67.48
2023-04-26T07:01:14.322Z,69.13
2023-04-26T07:02:17.752Z,68.96
2023-04-26T07:03:21.202Z,69.07
2023-04-26T07:04:24.099Z,68.62
2023-04-26T07:05:26.623Z,67.61
2023-04-26T07:06:31.591Z,68.43
2023-04-26T07:07:33.756Z,68.71
2023-04-26T07:08:35.677Z,68.34
2023-04-26T07:09:38.600Z,68.14
2023-04-26T07:10:41.596Z,66.19
2023-04-26T07:11:46.905Z,66.45
2023-04-26T07:12:49.116Z,67.03
2023-04-26T07:13:52.237Z,65.56
2023-04-26T07:14:54.954Z,64.74
2023-04-26T07:15:57.213Z,64.97
2023-04-26T07:17:01.627Z,66.07
2023-04-26T07:18:05.187Z,64.99
2023-04-26T07:19:08.239Z,65.02
2023-04-26T07:20:13.978Z,64.59
2023-04-26T07:21:17.148Z,64.55
2023-04-26T07:22:19.530Z,65.00
2023-04-26T07:23:21.775Z,65.06
2023-04-26T07:24:24.196Z,65.48
2023-04-26T07:25:26.420Z,65.64
2023-04-26T07:26:30.363Z,64.70
2023-04-26T07:27:32.684Z,64.21
2023-04-26T07:28:35.040Z,63.47
2023-04-26T07:29:38.605Z,65.78
2023-04-26T07:30:41.516Z,65.77
2023-04-26T07:31:43.880Z,63.99
2023-04-26T07:32:46.192Z,63.84
2023-04-26T07:33:49.200Z,64.84
2023-04-26T07:34:51.661Z,65.08
2023-04-26T07:35:59.756Z,63.56
2023-04-26T07:37:03.280Z,63.33
2023-04-26T07:38:08.059Z,64.46
2023-04-26T07:39:13.454Z,63.72
2023-04-26T07:40:16.609Z,63.07
2023-04-26T07:41:18.888Z,63.07
2023-04-26T07:42:20.893Z,62.46
2023-04-26T07:43:23.634Z,63.90
2023-04-26T07:44:25.945Z,64.13
2023-04-26T07:45:28.298Z,63.12
2023-04-26T07:46:33.705Z,63.08
2023-04-26T07:47:36.746Z,63.52
2023-04-26T07:48:39.200Z,63.67
2023-04-26T07:49:42.221Z,62.38
2023-04-26T07:50:44.694Z,63.06
2023-04-26T07:51:50.891Z,63.02
2023-04-26T07:52:53.289Z,62.39
2023-04-26T07:53:56.495Z,61.71
2023-04-26T07:54:59.017Z,61.48
2023-04-26T07:56:01.801Z,62.49
2023-04-26T07:57:04.229Z,61.32
2023-04-26T07:58:07.568Z,62.11
2023-04-26T07:59:10.512Z,60.88
2023-04-26T08:00:15.271Z,61.37
2023-04-26T08:01:18.041Z,60.12
2023-04-26T08:02:29.679Z,61.50
2023-04-26T08:03:28.126Z,62.06
2023-04-26T08:04:33.524Z,61.72
2023-04-26T08:05:36.497Z,61.10
2023-04-26T08:06:39.740Z,59.45
2023-04-26T08:07:42.746Z,61.53
2023-04-26T08:08:46.976Z,62.08
2023-04-26T08:09:49.257Z,61.28
2023-04-26T08:10:52.016Z,61.13
2023-04-26T08:11:54.854Z,62.08
2023-04-26T08:12:57.842Z,60.23
2023-04-26T08:14:00.230Z,61.25
2023-04-26T08:15:04.784Z,61.45
2023-04-26T08:16:07.368Z,62.32
2023-04-26T08:17:09.914Z,60.89
2023-04-26T08:18:12.849Z,61.21
2023-04-26T08:19:15.209Z,60.37
2023-04-26T08:20:17.660Z,59.70
2023-04-26T08:21:20.268Z,60.64
2023-04-26T08:22:22.859Z,60.11
2023-04-26T08:23:25.303Z,59.95
2023-04-26T08:24:27.744Z,61.36
2023-04-26T08:25:30.307Z,61.43
2023-04-26T08:26:32.496Z,62.67
2023-04-26T08:27:36.176Z,61.38
2023-04-26T08:28:38.590Z,59.76
2023-04-26T08:29:40.918Z,60.56
2023-04-26T08:30:43.600Z,59.67
2023-04-26T08:31:46.079Z,59.82
2023-04-26T08:32:49.074Z,60.54
2023-04-26T08:33:51.630Z,59.83
2023-04-26T08:34:54.911Z,60.61
2023-04-26T08:36:00.585Z,60.16
2023-04-26T08:37:02.764Z,60.63
2023-04-26T08:38:05.847Z,60.73
2023-04-26T08:39:09.138Z,59.74
2023-04-26T08:40:12.126Z,60.92
2023-04-26T08:41:18.367Z,60.01
2023-04-26T08:42:23.796Z,59.96
2023-04-26T08:43:27.387Z,60.05
2023-04-26T08:44:33.383Z,60.40
2023-04-26T08:45:38.458Z,60.79
2023-04-26T08:46:59.402Z,60.89
2023-04-26T08:48:05.642Z,60.87
2023-04-26T08:50:36.402Z,60.54
2023-04-26T08:51:39.609Z,60.29
2023-04-26T08:52:43.962Z,60.76
2023-04-26T08:53:49.014Z,60.69
2023-04-26T08:54:53.914Z,60.51
2023-04-26T08:55:57.813Z,60.40
2023-04-26T08:57:01.885Z,60.82
2023-04-26T08:58:07.473Z,60.53
2023-04-26T08:59:10.334Z,60.89
2023-04-26T09:00:16.334Z,60.69
2023-04-26T09:01:21.573Z,60.02
2023-04-26T09:02:24.213Z,59.24
2023-04-26T09:03:27.733Z,58.79
2023-04-26T09:04:31.169Z,58.27
2023-04-26T09:05:34.472Z,58.59
2023-04-26T09:06:38.339Z,58.65
2023-04-26T09:07:47.975Z,58.34
2023-04-26T09:08:53.124Z,57.92
2023-04-26T09:09:57.788Z,57.41
2023-04-26T09:11:01.214Z,57.18
2023-04-26T09:12:03.720Z,57.13
2023-04-26T09:13:07.204Z,57.39
2023-04-26T09:14:09.580Z,57.18
2023-04-26T09:15:13.565Z,56.90
2023-04-26T09:16:16.211Z,56.50
2023-04-26T09:17:25.837Z,56.70
2023-04-26T09:18:31.190Z,57.02
2023-04-26T09:19:38.089Z,56.82
2023-04-26T09:20:40.493Z,56.82
2023-04-26T09:21:45.968Z,57.14
2023-04-26T09:22:51.375Z,57.50
2023-04-26T09:23:58.517Z,58.29
2023-04-26T09:25:03.420Z,58.40
2023-04-26T09:26:20.853Z,57.74
2023-04-26T09:28:37.783Z,58.21
2023-04-26T09:29:41.143Z,58.94
2023-04-26T09:30:46.049Z,59.32
2023-04-26T09:31:50.337Z,59.28
2023-04-26T09:32:57.647Z,59.88
2023-04-26T09:34:04.025Z,60.40
2023-04-26T09:35:08.957Z,59.99
2023-04-26T09:36:12.873Z,59.92
2023-04-26T09:37:16.201Z,59.79
2023-04-26T09:38:18.835Z,59.93
2023-04-26T09:39:32.468Z,60.37
2023-04-26T09:40:41.678Z,60.66
2023-04-26T09:41:44.845Z,61.03
2023-04-26T09:42:50.039Z,61.60
2023-04-26T09:43:53.328Z,62.34
2023-04-26T09:44:59.361Z,62.77
2023-04-26T09:46:01.662Z,63.68
2023-04-26T09:47:11.996Z,64.84
2023-04-26T09:48:24.758Z,66.59
2023-04-26T09:49:36.482Z,67.16
2023-04-26T09:50:39.252Z,67.69
2023-04-26T09:51:45.072Z,67.95
2023-04-26T09:52:47.460Z,68.26
2023-04-26T09:53:50.387Z,68.82
2023-04-26T09:54:54.227Z,69.01
2023-04-26T09:55:58.106Z,69.01
2023-04-26T09:57:02.901Z,68.93
2023-04-26T09:58:10.731Z,69.33
2023-04-26T09:59:13.907Z,69.80
2023-04-26T10:00:17.307Z,69.73
2023-04-26T10:01:19.880Z,69.76
2023-04-26T10:02:26.748Z,69.81
2023-04-26T10:03:30.663Z,69.82
2023-04-26T10:04:33.250Z,70.13
2023-04-26T10:05:36.846Z,69.90
2023-04-26T10:06:40.169Z,69.87
2023-04-26T10:07:43.725Z,69.61
2023-04-26T10:08:46.601Z,69.50
2023-04-26T10:09:50.902Z,69.30
2023-04-26T10:10:57.182Z,69.31
2023-04-26T10:12:01.034Z,69.02
2023-04-26T10:13:05.458Z,69.25
2023-04-26T10:14:08.428Z,69.81
2023-04-26T10:15:13.290Z,70.35
2023-04-26T10:16:16.914Z,71.13
2023-04-26T10:17:23.165Z,71.28
2023-04-26T10:18:26.090Z,70.44
2023-04-26T10:19:30.239Z,70.17
2023-04-26T10:20:33.413Z,70.17
2023-04-26T10:21:39.455Z,69.76
2023-04-26T10:22:47.761Z,69.84
2023-04-26T10:23:51.034Z,68.99
2023-04-26T10:24:55.468Z,68.26
2023-04-26T10:25:58.445Z,68.65
2023-04-26T10:27:02.712Z,68.63
2023-04-26T10:28:06.850Z,68.14
2023-04-26T10:29:09.417Z,67.66
2023-04-26T10:30:17.709Z,67.75
2023-04-26T10:31:20.243Z,67.66
2023-04-26T10:32:23.468Z,66.91
2023-04-26T10:33:26.665Z,66.70
2023-04-26T10:34:33.434Z,66.19
2023-04-26T10:35:37.626Z,65.62
2023-04-26T10:36:43.653Z,65.23
2023-04-26T10:38:05.115Z,65.45
2023-04-26T10:39:21.721Z,65.34
2023-04-26T10:40:30.252Z,64.83
2023-04-26T10:41:35.444Z,64.78
2023-04-26T10:42:41.426Z,64.89
2023-04-26T10:43:43.177Z,64.83
2023-04-26T10:44:45.594Z,64.89
2023-04-26T10:45:49.905Z,64.71
2023-04-26T10:46:52.940Z,64.59
2023-04-26T10:48:19.933Z,64.69
2023-04-26T10:49:24.980Z,64.76
2023-04-26T10:50:27.521Z,65.20
2023-04-26T10:51:31.324Z,66.14
2023-04-26T10:52:34.747Z,66.86
2023-04-26T10:53:52.755Z,67.30
2023-04-26T10:54:58.776Z,67.54
2023-04-26T10:56:01.468Z,66.41
2023-04-26T10:57:03.839Z,65.64
2023-04-26T10:58:30.615Z,65.51
2023-04-26T10:59:43.561Z,65.21
2023-04-26T11:00:38.364Z,64.30
2023-04-26T11:01:40.863Z,63.77
2023-04-26T11:03:06.795Z,63.67
2023-04-26T11:04:11.534Z,64.04
2023-04-26T11:05:35.556Z,62.93
2023-04-26T11:06:49.195Z,63.10
2023-04-26T11:07:54.934Z,61.13
2023-04-26T11:09:00.077Z,62.23
2023-04-26T11:10:07.933Z,63.43
2023-04-26T11:11:11.602Z,63.82
2023-04-26T11:12:16.015Z,64.77
2023-04-26T11:13:21.205Z,65.12
2023-04-26T11:14:25.913Z,65.29
2023-04-26T11:15:30.680Z,66.31
2023-04-26T11:16:33.922Z,66.36
2023-04-26T11:17:40.604Z,66.15
2023-04-26T11:18:47.193Z,65.82
2023-04-26T11:19:50.385Z,65.56
2023-04-26T11:20:52.748Z,65.78
2023-04-26T11:21:56.237Z,65.80
2023-04-26T11:22:59.106Z,65.95
2023-04-26T11:24:02.055Z,66.07
2023-04-26T11:25:05.351Z,66.34
2023-04-26T11:26:09.158Z,66.10
2023-04-26T11:27:12.210Z,66.10
2023-04-26T11:28:14.625Z,65.85
2023-04-26T11:29:20.831Z,65.70
2023-04-26T11:30:24.142Z,65.43
2023-04-26T11:31:28.031Z,65.26
2023-04-26T11:32:31.451Z,65.08
2023-04-26T11:33:34.834Z,65.24
2023-04-26T11:34:40.082Z,64.81
2023-04-26T11:35:44.529Z,64.46
2023-04-26T11:36:46.902Z,64.79
2023-04-26T11:37:51.578Z,64.79
2023-04-26T11:38:55.054Z,64.63
2023-04-26T11:39:57.902Z,64.44
2023-04-26T11:41:03.670Z,65.29
2023-04-26T11:42:11.123Z,65.55
2023-04-26T11:43:14.777Z,65.85
2023-04-26T11:44:20.582Z,65.62
2023-04-26T11:45:22.932Z,66.03
2023-04-26T11:46:26.584Z,66.16
2023-04-26T11:47:31.305Z,66.17
2023-04-26T11:48:35.923Z,65.79
2023-04-26T11:49:38.899Z,66.37
2023-04-26T11:50:44.183Z,66.30
2023-04-26T11:51:49.148Z,66.58
2023-04-26T11:52:54.562Z,66.80
2023-04-26T11:54:00.993Z,66.77
2023-04-26T11:55:07.702Z,67.42
2023-04-26T11:56:18.152Z,67.53
2023-04-26T11:57:20.636Z,67.59
2023-04-26T11:58:22.952Z,67.82
2023-04-26T11:59:30.095Z,67.62
2023-04-26T12:00:32.619Z,67.27
2023-04-26T12:01:35.220Z,67.00
2023-04-26T12:02:38.077Z,66.91
2023-04-26T12:03:41.663Z,66.64
2023-04-26T12:04:44.289Z,65.81
2023-04-26T12:05:55.709Z,65.81
2023-04-26T12:06:58.775Z,65.85
2023-04-26T12:08:01.304Z,65.45
2023-04-26T12:09:05.632Z,65.35
2023-04-26T12:10:19.640Z,65.07
2023-04-26T12:11:21.851Z,64.75
2023-04-26T12:12:24.266Z,64.08
2023-04-26T12:13:27.727Z,64.26
2023-04-26T12:14:34.069Z,64.29
2023-04-26T12:15:36.418Z,64.00
2023-04-26T12:16:38.900Z,63.91
2023-04-26T12:17:43.105Z,63.87
2023-04-26T12:18:51.802Z,63.77
2023-04-26T12:19:55.511Z,63.96
2023-04-26T12:21:00.241Z,64.13
2023-04-26T12:22:03.375Z,64.39
2023-04-26T12:23:17.023Z,64.08
2023-04-26T12:24:24.085Z,63.89
2023-04-26T12:25:26.458Z,63.83
2023-04-26T12:26:45.027Z,63.50
2023-04-26T12:27:48.003Z,63.59
2023-04-26T12:28:51.384Z,63.47
2023-04-26T12:29:53.809Z,63.22
2023-04-26T12:30:56.379Z,63.06
2023-04-26T12:31:59.836Z,63.06
2023-04-26T12:33:15.708Z,63.77
2023-04-26T12:34:08.124Z,64.14
2023-04-26T12:35:10.649Z,64.32
2023-04-26T12:36:14.254Z,64.13
2023-04-26T12:37:16.543Z,64.13
2023-04-26T12:38:20.408Z,64.09
2023-04-26T12:39:22.902Z,64.37
2023-04-26T12:40:26.336Z,64.25
2023-04-26T12:41:28.588Z,64.48
2023-04-26T12:42:31.306Z,64.48
2023-04-26T12:43:33.502Z,65.03
2023-04-26T12:44:36.629Z,66.36
2023-04-26T12:45:39.582Z,66.94
2023-04-26T12:46:42.398Z,67.11
2023-04-26T12:47:46.654Z,67.21
2023-04-26T12:48:49.055Z,68.35
2023-04-26T12:49:51.773Z,69.81
2023-04-26T12:50:58.279Z,70.11
2023-04-26T12:52:00.640Z,70.68
2023-04-26T12:53:04.018Z,70.93
2023-04-26T12:54:06.470Z,71.61
2023-04-26T12:55:12.303Z,72.29
2023-04-26T12:56:15.821Z,72.24
2023-04-26T12:57:20.301Z,72.49
2023-04-26T12:58:22.780Z,73.19
2023-04-26T12:59:25.126Z,73.17
2023-04-26T13:00:28.338Z,73.53
2023-04-26T13:01:31.520Z,73.44
2023-04-26T13:02:33.946Z,72.94
2023-04-26T13:03:36.711Z,72.72
2023-04-26T13:04:41.282Z,72.73
2023-04-26T13:05:44.239Z,72.77
2023-04-26T13:06:47.198Z,72.36
2023-04-26T13:07:49.513Z,72.20
2023-04-26T13:08:51.711Z,73.84
2023-04-26T13:09:53.945Z,73.67
2023-04-26T13:10:57.609Z,74.54
2023-04-26T13:12:00.951Z,72.22
2023-04-26T13:13:03.318Z,73.56
2023-04-26T13:14:07.653Z,74.00
2023-04-26T13:15:10.782Z,72.99
2023-04-26T13:16:13.907Z,73.34
2023-04-26T13:17:16.306Z,73.63
2023-04-26T13:18:18.752Z,74.04
2023-04-26T13:19:21.626Z,73.85
2023-04-26T13:20:26.216Z,73.08
2023-04-26T13:21:29.141Z,73.56
2023-04-26T13:22:32.471Z,73.35
2023-04-26T13:23:36.095Z,74.29
2023-04-26T13:24:38.758Z,73.82
2023-04-26T13:25:41.376Z,73.55
2023-04-26T13:26:44.161Z,73.87
2023-04-26T13:27:47.483Z,74.40
2023-04-26T13:28:49.663Z,74.26
2023-04-26T13:29:52.102Z,74.19
2023-04-26T13:30:55.347Z,74.59
2023-04-26T13:32:00.055Z,74.91
2023-04-26T13:33:02.705Z,75.22
2023-04-26T13:34:05.280Z,75.81
2023-04-26T13:35:08.148Z,76.24
2023-04-26T13:36:10.918Z,76.92
2023-04-26T13:37:14.001Z,77.91
2023-04-26T13:38:17.767Z,78.29
2023-04-26T13:39:20.649Z,79.01
2023-04-26T13:40:23.192Z,79.57
2023-04-26T13:41:25.695Z,81.07
2023-04-26T13:42:28.540Z,80.66
2023-04-26T13:43:30.958Z,80.75
2023-04-26T13:44:33.647Z,80.64
2023-04-26T13:45:36.046Z,80.76